Time;durP1;ratioP1;P1;durP2;ratioP2;P2;SDS_P1;SDS_P2;PMS_P1;PMS_P2;Temp;Humidity;BMP_temperature;BMP_pressure;BME280_temperature;BME280_humidity;BME280_pressure;Samples;Min_cycle;Max_cycle;Signal;HPM_P1;HPM_P2
2021/04/25 00:02:11;;;;;;;2.08;1.70;;;22.90;26.10;;;;;;5056956;28;20481;-57
2021/04/25 00:04:38;;;;;;;2.53;1.70;;;22.90;26.10;;;;;;5058410;28;20025;-58
2021/04/25 00:07:07;;;;;;;2.40;1.63;;;23.00;26.20;;;;;;5062925;28;20111;-58
2021/04/25 00:09:41;;;;;;;2.20;1.77;;;23.00;26.20;;;;;;5059882;28;20131;-60
2021/04/25 00:12:14;;;;;;;2.58;1.85;;;22.90;26.20;;;;;;5058612;28;20082;-56
2021/04/25 00:14:43;;;;;;;2.40;1.85;;;22.90;26.20;;;;;;5073431;28;20033;-58
2021/04/25 00:17:15;;;;;;;2.35;1.60;;;22.90;26.20;;;;;;5055393;28;20029;-56
2021/04/25 00:19:44;;;;;;;1.60;1.50;;;22.90;26.20;;;;;;5060375;28;20021;-58
2021/04/25 00:22:17;;;;;;;2.78;1.67;;;22.90;26.30;;;;;;5056970;28;20051;-58
2021/04/25 00:24:46;;;;;;;2.65;2.05;;;22.90;26.30;;;;;;5060595;28;20029;-58
2021/04/25 00:27:14;;;;;;;2.55;1.58;;;22.90;26.30;;;;;;5058188;28;20411;-57
2021/04/25 00:29:42;;;;;;;3.15;1.80;;;22.90;26.30;;;;;;5062753;28;20036;-58
2021/04/25 00:32:12;;;;;;;2.78;1.88;;;22.80;26.30;;;;;;5056975;28;20310;-58
2021/04/25 00:34:45;;;;;;;2.20;1.60;;;22.90;26.30;;;;;;5064826;28;20432;-57
2021/04/25 00:37:14;;;;;;;2.35;1.60;;;22.80;26.30;;;;;;5057440;28;20045;-60
2021/04/25 00:39:42;;;;;;;1.77;1.60;;;22.80;26.30;;;;;;5058766;28;20391;-59
2021/04/25 00:42:14;;;;;;;1.95;1.65;;;22.80;26.30;;;;;;5051922;28;20041;-57
2021/04/25 00:44:45;;;;;;;2.30;1.50;;;22.80;26.30;;;;;;5057699;28;20150;-61
2021/04/25 00:47:20;;;;;;;2.38;1.80;;;22.80;26.30;;;;;;5056108;28;20119;-57
2021/04/25 00:49:50;;;;;;;3.25;1.80;;;22.80;26.30;;;;;;5056604;28;20459;-59
2021/04/25 00:52:20;;;;;;;2.65;1.67;;;22.80;26.30;;;;;;5038998;28;20055;-57
2021/04/25 00:54:50;;;;;;;2.60;1.80;;;22.80;26.30;;;;;;5063546;28;20033;-60
2021/04/25 00:57:27;;;;;;;2.63;1.80;;;22.80;26.30;;;;;;5057241;28;20062;-56
2021/04/25 00:59:55;;;;;;;2.42;1.52;;;22.80;26.30;;;;;;5056714;28;20052;-62
2021/04/25 01:02:26;;;;;;;2.78;1.90;;;22.80;26.30;;;;;;5057848;28;20021;-57
2021/04/25 01:04:54;;;;;;;2.90;1.80;;;22.70;26.30;;;;;;5066977;28;20039;-60
2021/04/25 01:07:24;;;;;;;1.83;1.60;;;22.70;26.30;;;;;;5074027;28;20024;-60
2021/04/25 01:09:53;;;;;;;1.88;1.60;;;22.70;26.30;;;;;;5068962;28;20025;-58
2021/04/25 01:12:23;;;;;;;2.78;1.88;;;22.70;26.30;;;;;;5072015;28;20025;-55
2021/04/25 01:14:51;;;;;;;1.80;1.50;;;22.70;26.30;;;;;;5062357;28;20407;-58
2021/04/25 01:17:26;;;;;;;2.47;1.52;;;22.70;26.30;;;;;;5072408;28;20179;-59
2021/04/25 01:19:54;;;;;;;3.08;1.70;;;22.70;26.30;;;;;;5055828;28;20036;-60
2021/04/25 01:22:28;;;;;;;2.17;1.65;;;22.70;26.30;;;;;;5056323;28;20277;-56
2021/04/25 01:24:57;;;;;;;2.00;1.65;;;22.70;26.20;;;;;;5047931;28;20040;-58
2021/04/25 01:27:29;;;;;;;3.00;2.00;;;22.70;26.30;;;;;;5056585;28;20029;-56
2021/04/25 01:30:02;;;;;;;1.63;1.42;;;22.70;26.20;;;;;;5058150;28;20368;-60
2021/04/25 01:32:36;;;;;;;1.83;1.45;;;22.70;26.20;;;;;;5059387;28;20439;-57
2021/04/25 01:35:05;;;;;;;2.15;1.77;;;22.70;26.20;;;;;;5063541;28;20118;-60
2021/04/25 01:37:34;;;;;;;1.38;1.27;;;22.70;26.20;;;;;;5059456;28;20029;-59
2021/04/25 01:40:04;;;;;;;1.75;1.50;;;22.70;26.20;;;;;;5070376;28;20055;-58
2021/04/25 01:42:33;;;;;;;2.00;1.80;;;22.70;26.10;;;;;;5054197;28;20028;-57
2021/04/25 01:45:06;;;;;;;2.25;1.40;;;22.60;26.10;;;;;;5060674;28;20029;-57
2021/04/25 01:47:35;;;;;;;3.47;1.80;;;22.60;26.10;;;;;;5073866;28;20035;-58
2021/04/25 01:50:08;;;;;;;;;;;22.60;26.10;;;;;;5063537;28;20082;-61
2021/04/25 01:52:37;;;;;;;1.58;1.40;;;22.60;26.10;;;;;;5055267;28;19908;-56
2021/04/25 01:55:11;;;;;;;2.55;1.38;;;22.60;26.10;;;;;;5064839;28;20020;-57
2021/04/25 01:57:40;;;;;;;2.33;1.60;;;22.60;26.10;;;;;;5054510;28;20041;-59
2021/04/25 02:00:12;;;;;;;2.22;1.40;;;22.60;26.10;;;;;;5060072;28;20162;-59
2021/04/25 02:02:45;;;;;;;1.63;1.40;;;22.60;26.00;;;;;;5074537;28;20123;-56
2021/04/25 02:05:17;;;;;;;2.30;1.70;;;22.60;26.00;;;;;;5055799;28;20028;-57
2021/04/25 02:07:49;;;;;;;2.50;1.50;;;22.60;26.00;;;;;;5054350;28;20051;-57
2021/04/25 02:10:21;;;;;;;1.80;1.40;;;22.60;26.00;;;;;;5058741;28;20082;-60
2021/04/25 02:12:50;;;;;;;1.90;1.45;;;22.60;26.00;;;;;;5057125;28;20028;-59
2021/04/25 02:15:19;;;;;;;2.22;1.40;;;22.60;26.00;;;;;;5064964;28;20017;-59
2021/04/25 02:17:48;;;;;;;1.63;1.25;;;22.50;25.90;;;;;;5053663;28;20087;-61
2021/04/25 02:20:24;;;;;;;1.58;1.17;;;22.60;25.90;;;;;;5060132;28;20082;-56
2021/04/25 02:22:55;;;;;;;2.85;1.85;;;22.50;25.90;;;;;;5060815;28;20087;-59
2021/04/25 02:25:26;;;;;;;1.52;1.25;;;22.50;25.90;;;;;;5055470;28;20021;-59
2021/04/25 02:27:56;;;;;;;2.42;1.25;;;22.50;25.90;;;;;;5074131;28;20033;-59
2021/04/25 02:30:28;;;;;;;1.75;1.30;;;22.50;25.90;;;;;;5051859;28;20512;-56
2021/04/25 02:32:58;;;;;;;1.75;1.08;;;22.50;25.90;;;;;;5073540;28;20097;-58
2021/04/25 02:35:28;;;;;;;1.52;1.40;;;22.50;25.90;;;;;;5065402;28;20067;-60
2021/04/25 02:37:59;;;;;;;2.17;1.45;;;22.50;25.90;;;;;;5073490;28;20036;-58
2021/04/25 02:40:34;;;;;;;1.88;1.48;;;22.50;25.90;;;;;;5064266;28;20032;-58
2021/04/25 02:43:10;;;;;;;1.65;0.98;;;22.50;25.90;;;;;;5055819;28;20412;-58
2021/04/25 02:45:49;;;;;;;1.85;1.27;;;22.50;25.90;;;;;;5064504;28;20377;-58
2021/04/25 02:48:28;;;;;;;2.05;1.60;;;22.50;25.90;;;;;;5054719;28;20036;-57
2021/04/25 02:50:56;;;;;;;1.65;1.17;;;22.50;25.90;;;;;;5058469;28;20029;-58
2021/04/25 02:53:34;;;;;;;1.83;1.40;;;22.50;25.90;;;;;;5054179;28;20091;-60
2021/04/25 02:56:05;;;;;;;1.70;1.20;;;22.40;25.80;;;;;;5057288;28;20031;-59
2021/04/25 02:58:39;;;;;;;1.48;1.27;;;22.50;25.80;;;;;;5053759;28;20029;-60
2021/04/25 03:01:08;;;;;;;1.70;1.20;;;22.50;25.80;;;;;;5057572;28;20048;-52
2021/04/25 03:03:45;;;;;;;1.63;1.20;;;22.40;25.80;;;;;;5053108;28;20032;-58
2021/04/25 03:06:13;;;;;;;1.95;1.30;;;22.40;25.70;;;;;;5056067;28;20033;-60
2021/04/25 03:08:46;;;;;;;1.80;1.35;;;22.40;25.70;;;;;;5060720;28;20020;-59
2021/04/25 03:11:14;;;;;;;2.22;1.30;;;22.40;25.80;;;;;;5058294;28;20029;-62
2021/04/25 03:13:44;;;;;;;1.83;1.15;;;22.40;25.80;;;;;;5058378;28;20044;-57
2021/04/25 03:16:19;;;;;;;2.75;1.33;;;22.40;25.70;;;;;;5065989;28;20040;-58
2021/04/25 03:18:48;;;;;;;1.67;1.13;;;22.40;25.70;;;;;;5056547;28;20105;-56
2021/04/25 03:21:16;;;;;;;1.60;1.08;;;22.40;25.70;;;;;;5058491;28;20037;-58
2021/04/25 03:23:48;;;;;;;1.42;1.20;;;22.40;25.70;;;;;;5057386;28;20036;-54
2021/04/25 03:26:17;;;;;;;2.03;1.50;;;22.40;25.70;;;;;;5065126;28;20337;-57
2021/04/25 03:28:45;;;;;;;1.92;1.30;;;22.40;25.70;;;;;;5061341;28;20041;-52
2021/04/25 03:31:25;;;;;;;1.70;1.13;;;22.40;25.70;;;;;;5044911;28;20403;-51
2021/04/25 03:33:54;;;;;;;2.13;1.20;;;22.40;25.60;;;;;;5074607;28;20020;-54
2021/04/25 03:36:26;;;;;;;1.67;1.20;;;22.40;25.60;;;;;;5068610;28;20037;-56
2021/04/25 03:38:59;;;;;;;2.00;1.33;;;22.40;25.60;;;;;;5074889;28;20090;-57
2021/04/25 03:41:27;;;;;;;1.75;1.10;;;22.30;25.60;;;;;;5050648;28;20359;-57
2021/04/25 03:43:55;;;;;;;2.00;1.20;;;22.40;25.60;;;;;;5059164;28;20047;-53
2021/04/25 03:46:24;;;;;;;1.52;0.98;;;22.40;25.60;;;;;;5049502;28;20524;-55
2021/04/25 03:48:53;;;;;;;2.20;1.30;;;22.30;25.60;;;;;;5058416;28;20033;-54
2021/04/25 03:51:22;;;;;;;1.65;1.10;;;22.40;25.60;;;;;;5065300;28;20031;-49
2021/04/25 03:53:48;;;;;;;2.05;1.30;;;22.40;25.60;;;;;;5058655;28;20139;-51
2021/04/25 03:56:15;;;;;;;1.88;1.27;;;22.30;25.50;;;;;;5070765;28;20063;-55
2021/04/25 03:58:42;;;;;;;1.33;1.00;;;22.30;25.50;;;;;;5058244;28;20036;-51
2021/04/25 04:01:08;;;;;;;1.38;1.00;;;22.30;25.50;;;;;;5037309;28;20041;-55
2021/04/25 04:03:35;;;;;;;1.40;1.10;;;22.30;25.50;;;;;;5038474;28;20022;-59
2021/04/25 04:06:01;;;;;;;2.38;1.20;;;22.30;25.50;;;;;;5053959;28;20371;-59
2021/04/25 04:08:28;;;;;;;2.22;1.30;;;22.30;25.50;;;;;;5046311;28;20035;-58
2021/04/25 04:10:54;;;;;;;1.00;0.90;;;22.30;25.50;;;;;;5038052;28;20030;-53
2021/04/25 04:13:21;;;;;;;1.20;0.90;;;22.30;25.50;;;;;;5039736;28;20029;-55
2021/04/25 04:15:47;;;;;;;1.95;1.13;;;22.30;25.50;;;;;;5053545;28;20399;-58
2021/04/25 04:18:14;;;;;;;1.42;1.00;;;22.30;25.50;;;;;;5055659;28;20416;-56
2021/04/25 04:20:40;;;;;;;1.70;1.10;;;22.30;25.50;;;;;;5052990;28;20038;-55
2021/04/25 04:23:07;;;;;;;1.92;1.10;;;22.30;25.40;;;;;;5043217;28;20387;-54
2021/04/25 04:25:33;;;;;;;2.30;1.40;;;22.30;25.40;;;;;;5038831;28;20124;-55
2021/04/25 04:28:00;;;;;;;1.88;1.13;;;22.30;25.40;;;;;;5040078;28;20049;-55
2021/04/25 04:30:27;;;;;;;1.63;1.02;;;22.30;25.40;;;;;;5037287;28;20405;-55
2021/04/25 04:32:54;;;;;;;1.63;1.30;;;22.30;25.40;;;;;;5042298;28;20065;-54
2021/04/25 04:35:21;;;;;;;1.73;1.10;;;22.30;25.40;;;;;;5051831;28;20397;-57
2021/04/25 04:37:51;;;;;;;1.35;0.90;;;22.30;25.40;;;;;;5047199;28;20064;-60
2021/04/25 04:40:21;;;;;;;1.13;0.70;;;22.30;25.40;;;;;;5041691;28;20034;-54
2021/04/25 04:42:49;;;;;;;0.82;0.65;;;22.30;25.40;;;;;;5045904;28;20033;-57
2021/04/25 04:45:18;;;;;;;1.33;0.90;;;22.30;25.40;;;;;;5053292;28;20492;-56
2021/04/25 04:47:48;;;;;;;1.30;0.80;;;22.20;25.40;;;;;;5050102;28;20116;-60
2021/04/25 04:50:19;;;;;;;1.38;0.82;;;22.30;25.40;;;;;;5045794;28;20170;-57
2021/04/25 04:52:48;;;;;;;1.38;0.80;;;22.20;25.40;;;;;;5059256;28;20026;-58
2021/04/25 04:55:18;;;;;;;1.58;0.90;;;22.20;25.30;;;;;;5049565;28;20071;-56
2021/04/25 04:57:47;;;;;;;1.42;1.00;;;22.20;25.30;;;;;;5051999;28;20033;-58
2021/04/25 05:00:16;;;;;;;1.10;0.80;;;22.20;25.30;;;;;;5046399;28;20045;-58
2021/04/25 05:02:44;;;;;;;1.85;0.95;;;22.20;25.30;;;;;;5038473;28;20052;-59
2021/04/25 05:05:17;;;;;;;1.15;0.80;;;22.20;25.30;;;;;;5049487;28;20036;-57
2021/04/25 05:07:46;;;;;;;3.85;1.00;;;22.20;25.30;;;;;;5062469;28;20400;-57
2021/04/25 05:10:19;;;;;;;1.90;0.98;;;22.20;25.30;;;;;;5051283;28;20132;-58
2021/04/25 05:13:09;;;;;;;1.50;0.93;;;22.20;25.30;;;;;;5050969;28;20174;-59
2021/04/25 05:15:39;;;;;;;1.60;1.00;;;22.20;25.30;;;;;;5054232;28;20021;-58
2021/04/25 05:18:19;;;;;;;1.80;1.05;;;22.20;25.30;;;;;;5037053;28;20043;-59
2021/04/25 05:20:50;;;;;;;3.03;1.10;;;22.20;25.30;;;;;;5051206;28;20440;-60
2021/04/25 05:23:23;;;;;;;1.48;0.77;;;22.20;25.30;;;;;;5033615;28;20460;-60
2021/04/25 05:25:51;;;;;;;1.90;0.93;;;22.20;25.30;;;;;;5046114;28;20034;-59
2021/04/25 05:28:29;;;;;;;5.75;1.00;;;22.10;25.20;;;;;;5047518;28;20024;-57
2021/04/25 05:31:04;;;;;;;2.30;0.90;;;22.10;25.20;;;;;;5041812;28;20049;-58
2021/04/25 05:33:36;;;;;;;1.10;0.70;;;22.20;25.30;;;;;;5035400;28;20108;-56
2021/04/25 05:36:10;;;;;;;1.90;0.88;;;22.10;25.20;;;;;;5038323;28;20051;-59
2021/04/25 05:38:39;;;;;;;1.00;0.63;;;22.10;25.20;;;;;;5059572;28;20021;-61
2021/04/25 05:41:11;;;;;;;1.10;0.68;;;22.10;25.20;;;;;;5040305;28;20029;-56
2021/04/25 05:43:40;;;;;;;1.15;0.77;;;22.10;25.20;;;;;;5036048;28;20104;-59
2021/04/25 05:46:08;;;;;;;1.45;0.80;;;22.10;25.20;;;;;;5036328;28;20041;-58
2021/04/25 05:48:44;;;;;;;2.55;1.15;;;22.10;25.20;;;;;;5056691;28;20523;-59
2021/04/25 05:51:13;;;;;;;0.93;0.60;;;22.10;25.20;;;;;;5044542;28;20178;-55
2021/04/25 05:53:46;;;;;;;1.98;0.95;;;22.10;25.20;;;;;;5049001;28;20448;-58
2021/04/25 05:56:22;;;;;;;2.28;0.80;;;22.10;25.20;;;;;;5041933;28;20033;-58
2021/04/25 05:58:56;;;;;;;2.05;0.88;;;22.10;25.20;;;;;;5053512;28;20132;-58
2021/04/25 06:01:25;;;;;;;1.38;0.80;;;22.10;25.20;;;;;;5059406;28;20056;-59
2021/04/25 06:03:53;;;;;;;1.58;0.90;;;22.10;25.30;;;;;;5039637;28;20041;-57
2021/04/25 06:06:28;;;;;;;1.42;0.63;;;22.10;25.20;;;;;;5020206;28;20035;-59
2021/04/25 06:08:58;;;;;;;1.70;0.77;;;22.10;25.20;;;;;;5060719;28;20024;-59
2021/04/25 06:11:27;;;;;;;2.45;1.02;;;22.10;25.20;;;;;;5061722;28;20367;-59
2021/04/25 06:13:59;;;;;;;1.77;1.05;;;22.10;25.20;;;;;;5064000;28;20060;-56
2021/04/25 06:16:37;;;;;;;1.83;0.90;;;22.10;25.20;;;;;;5056488;28;20044;-58
2021/04/25 06:19:08;;;;;;;0.80;0.57;;;22.10;25.20;;;;;;5036892;28;20044;-61
2021/04/25 06:21:41;;;;;;;1.30;0.85;;;22.10;25.30;;;;;;5065512;28;20020;-61
2021/04/25 06:24:16;;;;;;;2.15;0.85;;;22.10;25.40;;;;;;5056640;28;20036;-62
2021/04/25 06:26:48;;;;;;;1.13;0.63;;;22.10;25.30;;;;;;5041114;28;20033;-62
2021/04/25 06:29:19;;;;;;;1.70;0.90;;;22.10;25.30;;;;;;5054489;28;20091;-60
2021/04/25 06:31:58;;;;;;;1.25;0.70;;;22.10;25.30;;;;;;5057689;28;20041;-61
2021/04/25 06:34:37;;;;;;;0.60;0.60;;;22.10;25.30;;;;;;5065247;28;20444;-62
2021/04/25 06:37:12;;;;;;;1.50;0.73;;;22.10;25.30;;;;;;5053983;28;20402;-60
2021/04/25 06:39:47;;;;;;;1.15;0.80;;;22.10;25.30;;;;;;5055162;28;20028;-61
2021/04/25 06:42:27;;;;;;;1.25;0.60;;;22.10;25.40;;;;;;5054430;28;20037;-62
2021/04/25 06:44:58;;;;;;;3.17;0.70;;;22.10;25.40;;;;;;5049509;28;20036;-61
2021/04/25 06:47:33;;;;;;;1.58;0.90;;;22.10;25.40;;;;;;5059709;28;20492;-61
2021/04/25 06:50:13;;;;;;;3.28;1.00;;;22.10;25.40;;;;;;5067533;28;20439;-63
2021/04/25 06:52:54;;;;;;;1.20;0.60;;;22.10;25.40;;;;;;5060534;28;20466;-63
2021/04/25 06:55:29;;;;;;;0.88;0.52;;;22.10;25.40;;;;;;5066789;28;20032;-62
2021/04/25 06:58:02;;;;;;;1.55;0.68;;;22.10;25.40;;;;;;5074756;28;20032;-62
2021/04/25 07:00:33;;;;;;;0.90;0.57;;;22.10;25.40;;;;;;5073239;28;20122;-61
2021/04/25 07:03:03;;;;;;;1.00;0.50;;;22.10;25.40;;;;;;5061271;28;20344;-62
2021/04/25 07:05:32;;;;;;;2.28;0.80;;;22.10;25.30;;;;;;5056533;28;20351;-58
2021/04/25 07:08:03;;;;;;;1.08;0.52;;;22.10;25.40;;;;;;5048760;28;20177;-58
2021/04/25 07:10:34;;;;;;;1.63;0.70;;;22.10;25.50;;;;;;5061392;28;20029;-59
2021/04/25 07:13:01;;;;;;;2.30;0.57;;;22.20;25.60;;;;;;5060246;28;20020;-61
2021/04/25 07:15:31;;;;;;;1.02;0.50;;;22.20;25.60;;;;;;5060817;28;20070;-59
2021/04/25 07:17:59;;;;;;;0.77;0.52;;;22.20;25.60;;;;;;5060076;28;20036;-59
2021/04/25 07:20:27;;;;;;;1.77;0.60;;;22.30;25.60;;;;;;5045363;28;20086;-59
2021/04/25 07:23:01;;;;;;;1.45;0.52;;;22.30;25.60;;;;;;5062024;28;20114;-57
2021/04/25 07:25:28;;;;;;;0.77;0.50;;;22.40;25.60;;;;;;5065176;28;20440;-62
2021/04/25 07:27:55;;;;;;;1.48;0.60;;;22.40;25.50;;;;;;5063742;28;20032;-62
2021/04/25 07:30:23;;;;;;;2.47;0.70;;;22.50;25.50;;;;;;5041840;28;20029;-62
2021/04/25 07:32:49;;;;;;;1.55;0.60;;;22.50;25.40;;;;;;5057188;28;20112;-60
2021/04/25 07:35:16;;;;;;;1.40;0.40;;;22.50;25.30;;;;;;5062612;28;20082;-62
2021/04/25 07:37:44;;;;;;;2.15;0.70;;;22.50;25.20;;;;;;5057664;28;20032;-62
2021/04/25 07:40:12;;;;;;;1.45;0.47;;;22.60;25.10;;;;;;5066867;28;20032;-62
2021/04/25 07:42:40;;;;;;;0.57;0.40;;;22.60;25.10;;;;;;5061454;28;20031;-63
2021/04/25 07:45:13;;;;;;;0.73;0.43;;;22.60;25.00;;;;;;5048162;28;20740;-61
2021/04/25 07:47:46;;;;;;;2.75;0.50;;;22.60;25.00;;;;;;5059523;28;20028;-59
2021/04/25 07:50:21;;;;;;;0.95;0.40;;;22.60;24.90;;;;;;5060026;28;20405;-60
2021/04/25 07:53:01;;;;;;;1.77;0.50;;;22.60;24.90;;;;;;5053478;28;20451;-60
2021/04/25 07:55:35;;;;;;;3.92;1.25;;;22.70;25.00;;;;;;5058767;28;20452;-59
2021/04/25 07:58:03;;;;;;;3.97;2.03;;;22.70;25.00;;;;;;5056657;28;20129;-59
2021/04/25 08:00:31;;;;;;;5.07;2.50;;;22.70;25.00;;;;;;5058870;28;20475;-59
2021/04/25 08:03:01;;;;;;;5.22;2.70;;;22.70;24.90;;;;;;5067083;28;20028;-56
2021/04/25 08:05:32;;;;;;;5.03;2.67;;;22.70;24.90;;;;;;5066509;28;20448;-57
2021/04/25 08:08:10;;;;;;;4.07;2.40;;;22.70;24.90;;;;;;5072210;28;20025;-60
2021/04/25 08:10:39;;;;;;;3.47;2.20;;;22.70;24.90;;;;;;5042781;28;20024;-58
2021/04/25 08:13:06;;;;;;;3.03;1.92;;;22.80;24.90;;;;;;5075716;28;20043;-58
2021/04/25 08:15:34;;;;;;;3.78;1.60;;;22.80;24.90;;;;;;5064403;28;20446;-59
2021/04/25 08:18:08;;;;;;;2.95;1.60;;;22.80;24.80;;;;;;5055610;28;20106;-59
2021/04/25 08:20:40;;;;;;;5.15;1.65;;;22.80;24.80;;;;;;5061016;28;20044;-59
2021/04/25 08:23:08;;;;;;;3.83;1.80;;;22.80;24.80;;;;;;5074516;28;20036;-59
2021/04/25 08:25:43;;;;;;;3.53;1.20;;;22.80;24.80;;;;;;5059741;28;20093;-61
2021/04/25 08:28:20;;;;;;;1.58;1.05;;;22.90;24.80;;;;;;5072839;28;20039;-57
2021/04/25 08:30:54;;;;;;;2.13;1.10;;;22.90;24.80;;;;;;5071854;28;20064;-59
2021/04/25 08:33:22;;;;;;;2.58;1.17;;;22.80;24.80;;;;;;5079242;28;20051;-61
2021/04/25 08:35:52;;;;;;;3.50;0.85;;;22.90;24.80;;;;;;5070619;28;20056;-61
2021/04/25 08:38:23;;;;;;;2.17;0.73;;;22.80;24.60;;;;;;5073737;28;20029;-62
2021/04/25 08:41:02;;;;;;;3.00;1.00;;;22.80;24.50;;;;;;5049628;28;20036;-58
2021/04/25 08:43:36;;;;;;;1.05;0.80;;;22.60;24.40;;;;;;5069704;28;20119;-55
2021/04/25 08:46:04;;;;;;;1.95;0.60;;;22.40;24.40;;;;;;5069863;28;20364;-61
2021/04/25 08:48:33;;;;;;;1.80;0.90;;;22.40;24.50;;;;;;5060119;28;20024;-62
2021/04/25 08:51:14;;;;;;;1.02;0.43;;;22.40;24.50;;;;;;5064852;28;20033;-63
2021/04/25 08:53:43;;;;;;;0.80;0.57;;;22.40;24.50;;;;;;5062566;28;20356;-63
2021/04/25 08:56:11;;;;;;;1.88;0.60;;;22.40;24.60;;;;;;5057426;28;20024;-61
2021/04/25 08:58:46;;;;;;;2.42;1.10;;;22.50;24.60;;;;;;5057954;28;20131;-62
2021/04/25 09:01:33;;;;;;;1.88;0.95;;;22.50;24.70;;;;;;5064121;28;20520;-63
2021/04/25 09:04:06;;;;;;;2.90;1.30;;;22.60;24.70;;;;;;5054838;28;20032;-62
2021/04/25 09:06:58;;;;;;;3.33;1.50;;;22.60;24.80;;;;;;5061985;28;20020;-62
2021/04/25 09:09:42;;;;;;;2.72;1.15;;;22.60;24.70;;;;;;5056388;28;20093;-59
2021/04/25 09:12:35;;;;;;;2.33;1.05;;;22.70;24.80;;;;;;5068588;28;20133;-62
2021/04/25 09:15:14;;;;;;;3.97;1.40;;;22.70;24.80;;;;;;5070903;28;20105;-64
2021/04/25 09:18:02;;;;;;;1.63;1.00;;;22.70;24.80;;;;;;5063339;28;20453;-53
2021/04/25 09:20:48;;;;;;;3.58;1.50;;;22.80;24.90;;;;;;5061497;28;20029;-60
2021/04/25 09:23:21;;;;;;;2.65;1.50;;;22.80;25.10;;;;;;5054330;28;20047;-62
2021/04/25 09:25:56;;;;;;;2.75;1.60;;;22.80;25.30;;;;;;5055547;28;20024;-64
2021/04/25 09:28:23;;;;;;;3.47;1.73;;;22.80;25.40;;;;;;5067534;28;20053;-65
2021/04/25 09:31:14;;;;;;;3.17;1.60;;;22.80;25.40;;;;;;5036821;28;20056;-60
2021/04/25 09:33:56;;;;;;;4.40;1.95;;;22.90;25.50;;;;;;5074202;28;20458;-64
2021/04/25 09:36:29;;;;;;;7.25;3.30;;;22.90;25.80;;;;;;5074233;28;20039;-59
2021/04/25 09:39:26;;;;;;;8.25;4.43;;;22.90;26.30;;;;;;5067677;28;20036;-61
2021/04/25 09:42:03;;;;;;;6.20;2.80;;;22.90;27.10;;;;;;5057271;28;20028;-57
2021/04/25 09:44:41;;;;;;;3.58;1.70;;;22.90;26.90;;;;;;5070165;28;20114;-57
2021/04/25 09:47:08;;;;;;;3.05;1.58;;;22.80;26.20;;;;;;5081287;28;20044;-57
2021/04/25 09:50:12;;;;;;;2.03;1.17;;;22.70;26.00;;;;;;5041572;28;20029;-57
2021/04/25 09:52:48;;;;;;;3.42;1.77;;;22.60;25.80;;;;;;5069023;28;20029;-61
2021/04/25 09:55:28;;;;;;;5.57;2.40;;;22.50;26.30;;;;;;5061212;28;20095;-58
2021/04/25 09:58:28;;;;;;;6.70;2.05;;;22.50;27.00;;;;;;5048922;28;20035;-61
2021/04/25 10:00:56;;;;;;;3.50;2.05;;;22.50;27.40;;;;;;5065756;28;20048;-54
2021/04/25 10:03:37;;;;;;;3.92;1.90;;;22.50;27.40;;;;;;5053829;28;20028;-64
2021/04/25 10:06:07;;;;;;;3.65;2.00;;;22.60;27.30;;;;;;5064716;28;20061;-62
2021/04/25 10:08:38;;;;;;;4.15;1.90;;;22.60;27.30;;;;;;5059675;28;20056;-67
2021/04/25 10:11:09;;;;;;;3.40;1.65;;;22.60;27.20;;;;;;5070163;28;20424;-61
2021/04/25 10:13:56;;;;;;;4.88;2.05;;;22.60;27.10;;;;;;5075278;28;20044;-60
2021/04/25 10:16:32;;;;;;;6.35;2.53;;;22.60;27.10;;;;;;5075076;28;20044;-53
2021/04/25 10:19:09;;;;;;;8.35;2.75;;;22.60;27.30;;;;;;5056086;28;20403;-60
2021/04/25 10:21:39;;;;;;;6.97;3.55;;;22.60;27.50;;;;;;5061591;28;20028;-61
2021/04/25 10:24:09;;;;;;;5.28;2.70;;;22.60;27.90;;;;;;5057229;28;20037;-61
2021/04/25 10:27:00;;;;;;;6.35;2.88;;;22.60;28.10;;;;;;5055250;28;20029;-63
2021/04/25 10:30:06;;;;;;;6.38;2.47;;;22.70;28.10;;;;;;5053496;28;20037;-61
2021/04/25 10:32:44;;;;;;;4.55;1.95;;;22.70;27.90;;;;;;5050514;28;20037;-62
2021/04/25 10:35:29;;;;;;;3.97;1.58;;;22.70;27.70;;;;;;5065385;28;20037;-56
2021/04/25 10:37:59;;;;;;;3.75;2.10;;;22.70;27.50;;;;;;5055252;28;20094;-54
2021/04/25 10:40:47;;;;;;;6.03;2.45;;;22.70;27.70;;;;;;5066512;28;20033;-55
2021/04/25 10:43:57;;;;;;;6.07;2.72;;;22.70;28.40;;;;;;5056192;28;20028;-56
2021/04/25 10:46:37;;;;;;;3.58;2.25;;;22.70;28.70;;;;;;5057236;28;20104;-55
2021/04/25 10:49:39;;;;;;;7.25;3.17;;;22.70;29.10;;;;;;5035179;28;20079;-50
2021/04/25 10:52:27;;;;;;;6.40;3.13;;;22.80;30.10;;;;;;5047783;28;20051;-54
2021/04/25 10:55:20;;;;;;;5.53;2.70;;;22.80;30.30;;;;;;5060472;28;20035;-57
2021/04/25 10:58:01;;;;;;;5.28;2.80;;;22.80;31.00;;;;;;5037873;28;20040;-61
2021/04/25 11:00:39;;;;;;;4.47;2.28;;;22.80;30.90;;;;;;5041574;28;20044;-50
2021/04/25 11:03:18;;;;;;;5.93;2.72;;;22.80;30.50;;;;;;5032537;28;20044;-50
2021/04/25 11:05:50;;;;;;;8.90;3.58;;;22.90;30.20;;;;;;5033313;28;20040;-58
2021/04/25 11:08:30;;;;;;;5.05;2.80;;;22.90;30.50;;;;;;5034260;28;20017;-53
2021/04/25 11:11:05;;;;;;;5.20;2.20;;;22.90;30.50;;;;;;5038905;28;20044;-49
2021/04/25 11:13:50;;;;;;;4.15;2.22;;;23.00;30.10;;;;;;5042540;28;20030;-58
2021/04/25 11:16:18;;;;;;;4.00;1.80;;;23.00;29.80;;;;;;5042213;28;20033;-58
2021/04/25 11:19:12;;;;;;;2.63;1.30;;;23.10;29.60;;;;;;5047662;28;20025;-58
2021/04/25 11:21:46;;;;;;;3.45;1.38;;;23.10;29.20;;;;;;5037326;28;20041;-61
2021/04/25 11:24:14;;;;;;;3.50;1.55;;;23.10;28.90;;;;;;5036707;28;20060;-63
2021/04/25 11:26:43;;;;;;;2.40;1.17;;;23.20;28.70;;;;;;5040727;28;20037;-57
2021/04/25 11:29:25;;;;;;;1.92;1.10;;;23.20;28.60;;;;;;5019450;28;20136;-54
2021/04/25 11:32:01;;;;;;;3.63;1.40;;;23.20;28.30;;;;;;5041281;28;20071;-55
2021/04/25 11:34:33;;;;;;;2.33;1.00;;;23.20;28.10;;;;;;5052465;28;20474;-56
2021/04/25 11:37:14;;;;;;;2.50;1.20;;;23.20;28.00;;;;;;5054801;28;20060;-55
2021/04/25 11:39:44;;;;;;;1.27;0.82;;;23.30;27.90;;;;;;5051307;28;20040;-58
2021/04/25 11:42:30;;;;;;;2.60;1.30;;;23.30;27.80;;;;;;5047843;28;20383;-58
2021/04/25 11:45:07;;;;;;;1.73;1.02;;;23.30;27.70;;;;;;5049231;28;20099;-56
2021/04/25 11:47:44;;;;;;;2.10;1.00;;;23.30;27.60;;;;;;5046793;28;20463;-62
2021/04/25 11:50:14;;;;;;;2.45;1.23;;;23.30;27.50;;;;;;5037089;28;20455;-59
2021/04/25 11:52:42;;;;;;;2.92;1.00;;;23.30;27.40;;;;;;5057915;28;20029;-59
2021/04/25 11:55:16;;;;;;;3.63;1.40;;;23.40;27.40;;;;;;5041141;28;20022;-64
2021/04/25 11:57:45;;;;;;;3.53;1.33;;;23.40;27.30;;;;;;5040408;28;20040;-57
2021/04/25 12:00:16;;;;;;;2.33;1.10;;;23.40;27.30;;;;;;5051344;28;20048;-59
2021/04/25 12:02:55;;;;;;;1.40;1.00;;;23.40;27.30;;;;;;5052298;28;20122;-61
2021/04/25 12:05:39;;;;;;;1.58;0.65;;;23.40;27.30;;;;;;5058232;28;20062;-61
2021/04/25 12:08:17;;;;;;;2.15;0.90;;;23.50;27.30;;;;;;5060949;28;20063;-54
2021/04/25 12:10:53;;;;;;;1.30;0.70;;;23.50;27.20;;;;;;5063491;28;20021;-53
2021/04/25 12:13:29;;;;;;;2.58;0.77;;;23.50;27.10;;;;;;5037564;28;20958;-55
2021/04/25 12:15:56;;;;;;;2.53;0.80;;;23.50;27.10;;;;;;5047348;28;20091;-61
2021/04/25 12:18:24;;;;;;;2.85;0.80;;;23.50;26.90;;;;;;5064249;28;20490;-61
2021/04/25 12:20:55;;;;;;;2.20;0.80;;;23.50;26.90;;;;;;5060211;28;20110;-54
2021/04/25 12:23:24;;;;;;;1.88;0.70;;;23.60;26.90;;;;;;5065477;28;20047;-56
2021/04/25 12:25:52;;;;;;;1.52;0.80;;;23.60;26.90;;;;;;5060158;28;20024;-58
2021/04/25 12:28:34;;;;;;;1.13;0.60;;;23.60;26.90;;;;;;5064790;28;20031;-60
2021/04/25 12:31:01;;;;;;;1.42;0.80;;;23.60;26.80;;;;;;5067915;28;20170;-63
2021/04/25 12:33:41;;;;;;;1.10;0.60;;;23.60;26.70;;;;;;5060919;28;20111;-62
2021/04/25 12:36:14;;;;;;;1.13;0.70;;;23.70;26.60;;;;;;5063189;28;20416;-62
2021/04/25 12:38:54;;;;;;;1.77;0.80;;;23.70;26.60;;;;;;5061919;28;20021;-63
2021/04/25 12:41:23;;;;;;;1.38;0.88;;;23.60;26.50;;;;;;5065897;28;20068;-62
2021/04/25 12:43:55;;;;;;;2.22;0.82;;;23.70;26.50;;;;;;5068964;28;20463;-56
2021/04/25 12:46:28;;;;;;;2.33;1.05;;;23.60;26.50;;;;;;5064108;28;20039;-57
2021/04/25 12:49:06;;;;;;;1.25;0.73;;;23.60;26.40;;;;;;5065752;28;20035;-57
2021/04/25 12:51:49;;;;;;;1.90;1.00;;;23.60;26.40;;;;;;5064959;28;20088;-55
2021/04/25 12:54:18;;;;;;;1.25;0.75;;;23.60;26.40;;;;;;5062169;28;20017;-58
2021/04/25 12:56:46;;;;;;;1.58;0.90;;;23.60;26.40;;;;;;5063460;28;20170;-61
2021/04/25 12:59:17;;;;;;;3.83;0.90;;;23.60;26.40;;;;;;5045606;28;20032;-59
2021/04/25 13:02:07;;;;;;;0.90;0.60;;;23.60;26.40;;;;;;5061815;28;20077;-60
2021/04/25 13:04:43;;;;;;;1.17;0.50;;;23.60;26.30;;;;;;5068716;28;20078;-56
2021/04/25 13:07:39;;;;;;;1.70;0.70;;;23.60;26.30;;;;;;5046579;28;20356;-61
2021/04/25 13:10:12;;;;;;;1.63;0.65;;;23.60;26.20;;;;;;5063129;28;20033;-58
2021/04/25 13:12:47;;;;;;;1.67;0.60;;;23.60;26.30;;;;;;5064616;28;20510;-58
2021/04/25 13:15:20;;;;;;;1.80;0.90;;;23.60;26.20;;;;;;5045618;28;20036;-59
2021/04/25 13:18:07;;;;;;;1.70;0.80;;;23.60;26.20;;;;;;5065312;28;20033;-58
2021/04/25 13:20:43;;;;;;;1.00;0.60;;;23.60;26.20;;;;;;5063493;28;20029;-58